createdAt,value
2019-01-21T00:00:52.317Z,-3.25
2019-01-21T00:03:24.145Z,-3.28
2019-01-21T00:05:55.465Z,-3.25
2019-01-21T00:08:26.767Z,-3.30
2019-01-21T00:10:58.031Z,-3.33
2019-01-21T00:13:29.358Z,-3.36
2019-01-21T00:16:00.729Z,-3.39
2019-01-21T00:18:32.020Z,-3.31
2019-01-21T00:21:03.287Z,-3.34
2019-01-21T00:23:34.581Z,-3.42
2019-01-21T00:26:05.865Z,-3.47
2019-01-21T00:28:37.136Z,-3.52
2019-01-21T00:31:08.388Z,-3.54
2019-01-21T00:33:39.678Z,-3.54
2019-01-21T00:36:11.037Z,-3.53
2019-01-21T00:38:42.368Z,-3.53
2019-01-21T00:41:13.653Z,-3.51
2019-01-21T00:43:44.994Z,-3.50
2019-01-21T00:46:16.268Z,-3.50
2019-01-21T00:48:47.577Z,-3.51
2019-01-21T00:51:18.928Z,-3.52
2019-01-21T00:53:50.264Z,-3.49
2019-01-21T00:56:21.580Z,-3.50
2019-01-21T00:58:52.887Z,-3.52
2019-01-21T01:01:24.215Z,-3.57
2019-01-21T01:03:55.530Z,-3.60
2019-01-21T01:06:26.813Z,-3.60
2019-01-21T01:08:58.117Z,-3.61
2019-01-21T01:11:29.473Z,-3.58
2019-01-21T01:14:00.794Z,-3.64
2019-01-21T01:16:32.072Z,-3.65
2019-01-21T01:19:03.448Z,-3.68
2019-01-21T01:21:34.773Z,-3.66
2019-01-21T01:24:06.203Z,-3.72
2019-01-21T01:26:37.485Z,-3.71
2019-01-21T01:29:08.797Z,-3.72
2019-01-21T01:31:40.142Z,-3.79
2019-01-21T01:34:11.455Z,-3.74
2019-01-21T01:36:42.746Z,-3.81
2019-01-21T01:39:14.060Z,-3.80
2019-01-21T01:41:45.355Z,-3.71
2019-01-21T01:44:16.653Z,-3.74
2019-01-21T01:46:48.354Z,-3.78
2019-01-21T01:49:19.647Z,-3.90
2019-01-21T01:51:50.942Z,-4.00
2019-01-21T01:54:25.630Z,-4.09
2019-01-21T01:56:57.092Z,-4.09
2019-01-21T01:59:28.407Z,-4.11
2019-01-21T02:01:59.715Z,-4.17
2019-01-21T02:04:31.011Z,-4.19
2019-01-21T02:07:02.317Z,-4.18
2019-01-21T02:09:33.640Z,-4.19
2019-01-21T02:12:05.108Z,-4.20
2019-01-21T02:14:36.413Z,-4.22
2019-01-21T02:17:07.697Z,-4.24
2019-01-21T02:19:41.528Z,-4.25
2019-01-21T02:22:15.410Z,-4.30
2019-01-21T02:24:50.079Z,-4.32
2019-01-21T02:28:27.619Z,-4.37
2019-01-21T02:31:56.220Z,-4.36
2019-01-21T02:35:39.630Z,-4.39
2019-01-21T02:38:56.266Z,-4.39
2019-01-21T02:41:59.629Z,-4.36
2019-01-21T02:45:18.349Z,-4.38
2019-01-21T02:48:18.514Z,-4.40
2019-01-21T02:52:00.997Z,-4.39
2019-01-21T02:55:11.613Z,-4.40
2019-01-21T02:58:41.880Z,-4.44
2019-01-21T03:02:06.618Z,-4.37
2019-01-21T03:05:20.767Z,-4.43
2019-01-21T03:08:32.358Z,-4.43
2019-01-21T03:12:12.797Z,-4.46
2019-01-21T03:15:52.639Z,-4.49
2019-01-21T03:19:17.193Z,-4.51
2019-01-21T03:22:55.759Z,-4.54
2019-01-21T03:26:23.390Z,-4.55
2019-01-21T03:30:06.658Z,-4.54
2019-01-21T03:33:21.491Z,-4.50
2019-01-21T03:36:45.416Z,-4.48
2019-01-21T03:39:58.199Z,-4.53
2019-01-21T03:42:52.914Z,-4.57
2019-01-21T03:45:53.219Z,-4.51
2019-01-21T03:49:03.845Z,-4.55
2019-01-21T03:52:24.862Z,-4.53
2019-01-21T03:55:03.496Z,-4.52
2019-01-21T03:58:42.882Z,-4.54
2019-01-21T04:02:11.351Z,-4.58
2019-01-21T04:05:20.457Z,-4.58
2019-01-21T04:08:36.083Z,-4.57
2019-01-21T04:11:43.976Z,-4.58
2019-01-21T04:15:13.470Z,-4.64
2019-01-21T04:18:41.279Z,-4.70
2019-01-21T04:22:00.797Z,-4.70
2019-01-21T04:24:58.824Z,-4.68
2019-01-21T04:28:16.860Z,-4.71
2019-01-21T04:31:22.228Z,-4.73
2019-01-21T04:34:45.429Z,-4.72
2019-01-21T04:38:14.404Z,-4.75
2019-01-21T04:41:10.450Z,-4.72
2019-01-21T04:44:37.401Z,-4.77
2019-01-21T04:47:52.302Z,-4.76
2019-01-21T04:51:05.612Z,-4.74
2019-01-21T04:54:27.132Z,-4.79
2019-01-21T04:58:09.166Z,-4.89
2019-01-21T05:01:18.411Z,-4.94
2019-01-21T05:04:36.176Z,-4.95
2019-01-21T05:07:51.074Z,-4.90
2019-01-21T05:11:14.107Z,-4.93
2019-01-21T05:14:51.935Z,-4.89
2019-01-21T05:18:12.070Z,-4.89
2019-01-21T05:21:48.367Z,-4.91
2019-01-21T05:25:08.740Z,-4.87
2019-01-21T05:28:19.788Z,-4.91
2019-01-21T05:31:33.382Z,-4.90
2019-01-21T05:35:11.149Z,-4.99
2019-01-21T05:38:07.878Z,-4.95
2019-01-21T05:41:15.239Z,-4.94
2019-01-21T05:44:58.038Z,-4.89
2019-01-21T05:48:49.013Z,-4.87
2019-01-21T05:52:24.684Z,-4.90
2019-01-21T05:55:40.730Z,-4.96
2019-01-21T05:59:21.336Z,-5.03
2019-01-21T06:02:37.161Z,-5.01
2019-01-21T06:05:52.423Z,-5.04
2019-01-21T06:09:15.292Z,-5.02
2019-01-21T06:12:46.479Z,-5.01
2019-01-21T06:15:57.958Z,-4.97
2019-01-21T06:19:11.241Z,-4.95
2019-01-21T06:22:45.382Z,-4.93
2019-01-21T06:26:12.720Z,-4.97
2019-01-21T06:30:13.756Z,-4.93
2019-01-21T06:33:48.775Z,-4.94
2019-01-21T06:37:17.605Z,-4.96
2019-01-21T06:40:32.321Z,-4.98
2019-01-21T06:43:32.546Z,-4.90
2019-01-21T06:46:52.652Z,-4.80
2019-01-21T06:50:09.393Z,-4.78
2019-01-21T06:53:28.766Z,-4.75
2019-01-21T06:56:53.167Z,-4.73
2019-01-21T07:00:21.685Z,-4.83
2019-01-21T07:03:39.623Z,-4.84
2019-01-21T07:07:01.272Z,-4.90
2019-01-21T07:10:15.531Z,-4.86
2019-01-21T07:13:32.847Z,-4.77
2019-01-21T07:16:38.171Z,-4.79
2019-01-21T07:20:33.302Z,-4.73
2019-01-21T07:23:53.220Z,-4.69
2019-01-21T07:27:12.471Z,-4.72
2019-01-21T07:30:30.968Z,-4.78
2019-01-21T07:33:41.475Z,-4.84
2019-01-21T07:36:34.761Z,-4.75
2019-01-21T07:39:40.757Z,-4.00
2019-01-21T07:42:52.225Z,-2.88
2019-01-21T07:45:46.848Z,-1.76
2019-01-21T07:49:24.969Z,-0.63
2019-01-21T07:52:41.052Z,0.33
2019-01-21T07:56:02.575Z,1.45
2019-01-21T07:59:46.938Z,2.53
2019-01-21T08:03:34.316Z,3.62
2019-01-21T08:06:59.186Z,4.83
2019-01-21T08:10:11.355Z,5.91
2019-01-21T08:13:42.678Z,6.91
2019-01-21T08:16:58.695Z,7.80
2019-01-21T08:20:25.245Z,8.80
2019-01-21T08:23:47.403Z,9.88
2019-01-21T08:27:17.003Z,10.91
2019-01-21T08:30:41.483Z,11.88
2019-01-21T08:34:13.799Z,12.49
2019-01-21T08:37:58.595Z,13.07
2019-01-21T08:41:31.277Z,13.88
2019-01-21T08:44:53.405Z,14.71
2019-01-21T08:48:24.933Z,15.35
2019-01-21T08:51:52.909Z,15.76
2019-01-21T08:55:10.951Z,16.34
2019-01-21T08:58:45.720Z,16.87
2019-01-21T09:01:56.842Z,17.40
2019-01-21T09:05:03.624Z,17.50
2019-01-21T09:08:11.354Z,17.89
2019-01-21T09:12:06.622Z,17.99
2019-01-21T09:16:10.583Z,18.54
2019-01-21T09:19:46.883Z,16.64
2019-01-21T09:22:53.269Z,16.82
2019-01-21T09:26:23.645Z,17.83
2019-01-21T09:29:27.022Z,18.32
2019-01-21T09:32:48.657Z,18.71
2019-01-21T09:35:54.441Z,18.47
2019-01-21T09:39:18.679Z,18.85
2019-01-21T09:42:56.424Z,17.07
2019-01-21T09:46:08.447Z,15.88
2019-01-21T09:48:37.257Z,14.37
2019-01-21T09:51:08.668Z,13.79
2019-01-21T09:53:40.780Z,13.88
2019-01-21T09:56:12.189Z,14.46
2019-01-21T09:58:45.458Z,15.14
2019-01-21T10:01:17.310Z,15.32
2019-01-21T10:03:48.752Z,15.67
2019-01-21T10:06:27.521Z,16.93
2019-01-21T10:10:00.478Z,16.49
2019-01-21T10:13:50.102Z,15.88
2019-01-21T10:17:07.802Z,16.57
2019-01-21T10:20:27.056Z,16.80
2019-01-21T10:24:34.531Z,16.95
2019-01-21T10:27:58.530Z,17.63
2019-01-21T10:31:13.560Z,16.01
2019-01-21T10:34:46.704Z,15.80
2019-01-21T10:38:14.782Z,15.56
2019-01-21T10:41:26.194Z,15.49
2019-01-21T10:44:28.327Z,14.50
2019-01-21T10:47:22.526Z,13.43
2019-01-21T10:50:47.449Z,13.82
2019-01-21T10:54:05.005Z,14.62
2019-01-21T10:57:27.388Z,14.36
2019-01-21T11:01:00.715Z,15.06
2019-01-21T11:04:43.009Z,15.91
2019-01-21T11:08:19.117Z,16.37
2019-01-21T11:12:08.091Z,16.17
2019-01-21T11:15:33.603Z,16.19
2019-01-21T11:18:44.876Z,15.50
2019-01-21T11:22:08.384Z,14.12
2019-01-21T11:25:39.309Z,12.59
2019-01-21T11:28:54.720Z,12.27
2019-01-21T11:31:48.560Z,12.45
2019-01-21T11:35:18.529Z,12.98
2019-01-21T11:38:51.487Z,13.83
2019-01-21T11:42:22.958Z,14.71
2019-01-21T11:46:04.530Z,15.28
2019-01-21T11:48:52.032Z,14.30
2019-01-21T11:52:03.088Z,14.41
2019-01-21T11:55:19.369Z,14.93
2019-01-21T11:58:32.581Z,14.92
2019-01-21T12:02:03.141Z,15.09
2019-01-21T12:05:25.698Z,15.32
2019-01-21T12:09:18.357Z,15.45
2019-01-21T12:12:32.513Z,15.53
2019-01-21T12:16:20.125Z,15.09
2019-01-21T12:19:29.673Z,15.43
2019-01-21T12:23:21.945Z,15.55
2019-01-21T12:26:33.404Z,15.15
2019-01-21T12:29:40.708Z,15.25
2019-01-21T12:33:03.088Z,15.45
2019-01-21T12:36:27.023Z,15.74
2019-01-21T12:40:08.760Z,15.64
2019-01-21T12:43:36.735Z,15.39
2019-01-21T12:47:13.701Z,15.79
2019-01-21T12:50:52.180Z,15.93
2019-01-21T12:54:06.504Z,15.57
2019-01-21T12:57:39.275Z,15.76
2019-01-21T13:00:57.823Z,15.91
2019-01-21T13:03:59.811Z,16.05
2019-01-21T13:07:21.780Z,15.96
2019-01-21T13:10:54.468Z,16.21
2019-01-21T13:14:15.749Z,15.82
2019-01-21T13:17:26.912Z,15.31
2019-01-21T13:20:45.783Z,15.67
2019-01-21T13:23:39.943Z,15.66
2019-01-21T13:26:54.259Z,15.55
2019-01-21T13:30:43.443Z,15.90
2019-01-21T13:33:53.822Z,15.93
2019-01-21T13:37:09.994Z,15.71
2019-01-21T13:40:53.140Z,15.94
2019-01-21T13:44:38.667Z,15.82
2019-01-21T13:48:09.139Z,14.76
2019-01-21T13:51:26.911Z,14.38
2019-01-21T13:54:39.731Z,14.75
2019-01-21T13:58:08.990Z,14.45
2019-01-21T14:01:21.794Z,14.47
2019-01-21T14:04:40.806Z,13.00
2019-01-21T14:07:57.459Z,12.03
2019-01-21T14:11:02.306Z,11.99
2019-01-21T14:14:11.973Z,11.49
2019-01-21T14:17:34.514Z,11.16
2019-01-21T14:20:46.134Z,10.72
2019-01-21T14:23:42.583Z,10.44
2019-01-21T14:27:12.670Z,9.67
2019-01-21T14:31:01.445Z,9.22
2019-01-21T14:34:05.591Z,9.04
2019-01-21T14:37:37.390Z,8.48
2019-01-21T14:40:38.843Z,8.53
2019-01-21T14:43:53.036Z,8.49
2019-01-21T14:47:36.283Z,7.83
2019-01-21T14:51:00.260Z,7.74
2019-01-21T14:54:41.285Z,7.64
2019-01-21T14:57:56.275Z,7.70
2019-01-21T15:01:26.904Z,7.71
2019-01-21T15:05:06.563Z,7.53
2019-01-21T15:07:58.004Z,7.03
2019-01-21T15:11:11.631Z,7.08
2019-01-21T15:14:24.739Z,7.08
2019-01-21T15:17:49.071Z,7.01
2019-01-21T15:20:57.737Z,6.86
2019-01-21T15:23:47.030Z,6.86
2019-01-21T15:27:13.809Z,6.75
2019-01-21T15:30:15.309Z,6.57
2019-01-21T15:33:35.717Z,6.21
2019-01-21T15:37:00.911Z,6.04
2019-01-21T15:40:35.089Z,5.70
2019-01-21T15:43:38.971Z,5.37
2019-01-21T15:46:54.604Z,4.97
2019-01-21T15:49:50.104Z,4.70
2019-01-21T15:53:11.247Z,4.36
2019-01-21T15:56:06.841Z,4.14
2019-01-21T15:58:57.897Z,3.91
2019-01-21T16:02:27.995Z,3.74
2019-01-21T16:06:06.916Z,3.55
2019-01-21T16:09:10.486Z,3.28
2019-01-21T16:12:36.437Z,2.92
2019-01-21T16:15:48.937Z,2.72
2019-01-21T16:18:34.935Z,2.52
2019-01-21T16:22:12.050Z,2.38
2019-01-21T16:25:55.079Z,2.20
2019-01-21T16:29:10.388Z,2.15
2019-01-21T16:32:01.992Z,2.09
2019-01-21T16:35:14.410Z,1.70
2019-01-21T16:38:09.378Z,1.61
2019-01-21T16:41:27.411Z,1.39
2019-01-21T16:43:58.682Z,1.30
2019-01-21T16:46:30.018Z,1.22
2019-01-21T16:49:01.320Z,1.22
2019-01-21T16:51:32.566Z,1.09
2019-01-21T16:54:03.892Z,1.06
2019-01-21T16:56:35.162Z,1.00
2019-01-21T16:59:06.615Z,0.98
2019-01-21T17:01:37.895Z,0.83
2019-01-21T17:04:09.193Z,0.81
2019-01-21T17:06:40.567Z,0.92
2019-01-21T17:09:12.851Z,0.84
2019-01-21T17:11:44.159Z,0.81
2019-01-21T17:14:15.451Z,0.82
2019-01-21T17:16:46.758Z,0.78
2019-01-21T17:19:18.078Z,0.77
2019-01-21T17:21:49.316Z,0.71
2019-01-21T17:24:20.581Z,0.65
2019-01-21T17:26:51.822Z,0.71
2019-01-21T17:29:23.161Z,0.63
2019-01-21T17:31:55.046Z,0.54
2019-01-21T17:34:26.349Z,0.55
2019-01-21T17:36:57.603Z,0.46
2019-01-21T17:39:28.859Z,0.30
2019-01-21T17:42:00.187Z,0.16
2019-01-21T17:44:31.475Z,0.25
2019-01-21T17:47:02.760Z,0.29
2019-01-21T17:49:34.042Z,0.16
2019-01-21T17:52:05.555Z,0.15
2019-01-21T17:54:36.847Z,0.14
2019-01-21T17:57:08.169Z,0.00
2019-01-21T17:59:39.450Z,0.00
2019-01-21T18:02:10.747Z,-0.06
2019-01-21T18:04:42.046Z,-0.05
2019-01-21T18:07:13.351Z,-0.01
2019-01-21T18:09:44.636Z,-0.07
2019-01-21T18:12:15.961Z,-0.15
2019-01-21T18:14:47.275Z,-0.14
2019-01-21T18:17:18.584Z,-0.23
2019-01-21T18:19:49.862Z,-0.20
2019-01-21T18:22:21.198Z,-0.22
2019-01-21T18:24:52.538Z,-0.29
2019-01-21T18:27:23.867Z,-0.10
2019-01-21T18:29:55.145Z,-0.32
2019-01-21T18:32:26.481Z,-0.33
2019-01-21T18:34:57.816Z,-0.23
2019-01-21T18:37:29.150Z,-0.31
2019-01-21T18:40:00.465Z,-0.31
2019-01-21T18:42:31.755Z,-0.17
2019-01-21T18:45:03.067Z,-0.29
2019-01-21T18:47:34.383Z,-0.36
2019-01-21T18:50:06.796Z,-0.36
2019-01-21T18:52:38.115Z,-0.42
2019-01-21T18:55:09.778Z,-0.45
2019-01-21T18:57:41.089Z,-0.50
2019-01-21T19:00:17.283Z,-0.42
2019-01-21T19:02:48.599Z,-0.42
2019-01-21T19:05:20.174Z,-0.55
2019-01-21T19:07:51.481Z,-0.60
2019-01-21T19:10:22.774Z,-0.58
2019-01-21T19:12:54.227Z,-0.61
2019-01-21T19:15:31.930Z,-0.63
2019-01-21T19:18:03.541Z,-0.65
2019-01-21T19:20:34.849Z,-0.60
2019-01-21T19:23:06.137Z,-0.62
2019-01-21T19:25:37.467Z,-0.65
2019-01-21T19:28:08.759Z,-0.60
2019-01-21T19:30:40.087Z,-0.55
2019-01-21T19:33:11.463Z,-0.61
2019-01-21T19:35:42.800Z,-0.43
2019-01-21T19:38:14.097Z,-0.55
2019-01-21T19:40:45.431Z,-0.56
2019-01-21T19:43:16.815Z,-0.65
2019-01-21T19:45:48.164Z,-0.48
2019-01-21T19:48:19.482Z,-0.60
2019-01-21T19:50:50.903Z,-0.72
2019-01-21T19:53:22.247Z,-0.77
2019-01-21T19:55:53.505Z,-0.84
2019-01-21T19:58:24.903Z,-0.84
2019-01-21T20:00:56.352Z,-0.90
2019-01-21T20:03:27.669Z,-0.87
2019-01-21T20:05:58.965Z,-0.93
2019-01-21T20:08:30.275Z,-0.98
2019-01-21T20:11:01.613Z,-0.99
2019-01-21T20:13:32.898Z,-0.99
2019-01-21T20:16:04.218Z,-0.93
2019-01-21T20:18:35.555Z,-0.98
2019-01-21T20:21:06.911Z,-0.97
2019-01-21T20:23:38.232Z,-0.92
2019-01-21T20:26:09.524Z,-0.88
2019-01-21T20:28:40.947Z,-0.87
2019-01-21T20:31:12.236Z,-0.93
2019-01-21T20:33:43.577Z,-0.87
2019-01-21T20:36:14.921Z,-0.97
2019-01-21T20:38:46.271Z,-1.02
2019-01-21T20:41:17.598Z,-1.09
2019-01-21T20:43:48.960Z,-1.10
2019-01-21T20:46:20.231Z,-1.12
2019-01-21T20:48:51.546Z,-1.06
2019-01-21T20:51:22.862Z,-1.02
2019-01-21T20:53:54.201Z,-1.01
2019-01-21T20:56:25.483Z,-0.98
2019-01-21T20:58:56.739Z,-0.97
2019-01-21T21:01:28.108Z,-0.93
2019-01-21T21:03:59.464Z,-0.99
2019-01-21T21:06:30.801Z,-0.96
2019-01-21T21:09:02.162Z,-1.07
2019-01-21T21:11:33.490Z,-1.04
2019-01-21T21:14:04.927Z,-1.09
2019-01-21T21:16:36.246Z,-1.12
2019-01-21T21:19:07.614Z,-1.19
2019-01-21T21:21:38.946Z,-1.24
2019-01-21T21:24:10.262Z,-1.26
2019-01-21T21:26:41.581Z,-1.17
2019-01-21T21:29:13.711Z,-1.28
2019-01-21T21:31:45.053Z,-1.25
2019-01-21T21:34:16.561Z,-1.19
2019-01-21T21:36:47.907Z,-1.25
2019-01-21T21:39:19.241Z,-1.25
2019-01-21T21:41:50.532Z,-1.29
2019-01-21T21:44:21.862Z,-1.40
2019-01-21T21:46:53.171Z,-1.39
2019-01-21T21:49:24.753Z,-1.41
2019-01-21T21:51:56.161Z,-1.39
2019-01-21T21:54:27.507Z,-1.38
2019-01-21T21:56:59.099Z,-1.40
2019-01-21T21:59:30.450Z,-1.30
2019-01-21T22:02:01.775Z,-1.18
2019-01-21T22:04:33.189Z,-1.24
2019-01-21T22:07:04.490Z,-1.24
2019-01-21T22:09:35.789Z,-1.22
2019-01-21T22:12:07.087Z,-1.19
2019-01-21T22:14:38.392Z,-1.27
2019-01-21T22:17:09.705Z,-1.20
2019-01-21T22:19:41.298Z,-1.17
2019-01-21T22:22:12.617Z,-1.31
2019-01-21T22:24:43.912Z,-1.26
2019-01-21T22:27:15.198Z,-1.30
2019-01-21T22:29:46.500Z,-1.38
2019-01-21T22:32:17.813Z,-1.41
2019-01-21T22:34:49.116Z,-1.39
2019-01-21T22:37:20.401Z,-1.44
2019-01-21T22:39:51.641Z,-1.47
2019-01-21T22:42:23.246Z,-1.53
2019-01-21T22:44:54.520Z,-1.54
2019-01-21T22:47:25.842Z,-1.63
2019-01-21T22:49:57.168Z,-1.65
2019-01-21T22:52:28.745Z,-1.67
2019-01-21T22:55:00.242Z,-1.69
2019-01-21T22:57:31.562Z,-1.65
2019-01-21T23:00:02.894Z,-1.65
2019-01-21T23:02:34.291Z,-1.73
2019-01-21T23:05:06.167Z,-1.79
2019-01-21T23:07:37.513Z,-1.74
2019-01-21T23:10:09.025Z,-1.81
2019-01-21T23:12:40.355Z,-1.87
2019-01-21T23:15:12.063Z,-1.94
2019-01-21T23:17:43.356Z,-1.95
2019-01-21T23:20:14.665Z,-1.94
2019-01-21T23:22:49.269Z,-1.97
2019-01-21T23:25:19.047Z,-2.07
2019-01-21T23:27:50.389Z,-2.04
2019-01-21T23:30:22.089Z,-2.04
2019-01-21T23:32:53.458Z,-1.98
2019-01-21T23:35:24.767Z,-2.05
2019-01-21T23:37:56.351Z,-2.05
2019-01-21T23:40:30.770Z,-2.01
2019-01-21T23:43:02.105Z,-2.04
2019-01-21T23:45:33.434Z,-2.05
2019-01-21T23:48:04.832Z,-2.10
2019-01-21T23:50:36.139Z,-2.15
2019-01-21T23:53:07.457Z,-2.15
2019-01-21T23:55:38.737Z,-2.14
2019-01-21T23:58:10.079Z,-2.15
